createdAt,value
2022-11-30T00:00:40.724Z,98784.94
2022-11-30T00:03:08.448Z,98793.22
2022-11-30T00:05:35.043Z,98784.66
2022-11-30T00:08:01.656Z,98792.94
2022-11-30T00:10:28.136Z,98789.19
2022-11-30T00:12:54.615Z,98791.59
2022-11-30T00:15:21.166Z,98788.91
2022-11-30T00:17:47.790Z,98783.81
2022-11-30T00:20:14.765Z,98787.56
2022-11-30T00:22:41.630Z,98787.56
2022-11-30T00:25:08.232Z,98791.03
2022-11-30T00:27:34.729Z,98783.53
2022-11-30T00:30:02.251Z,98784.59
2022-11-30T00:32:28.840Z,98786.72
2022-11-30T00:34:55.426Z,98788.84
2022-11-30T00:37:21.952Z,98789.38
2022-11-30T00:39:48.466Z,98790.97
2022-11-30T00:42:15.278Z,98793.09
2022-11-30T00:44:41.728Z,98792.31
2022-11-30T00:47:08.174Z,98790.16
2022-11-30T00:49:34.632Z,98790.41
2022-11-30T00:52:01.777Z,98790.69
2022-11-30T00:54:28.492Z,98786.94
2022-11-30T00:56:54.993Z,98786.94
2022-11-30T00:59:21.463Z,98787.19
2022-11-30T01:01:48.088Z,98790.13
2022-11-30T01:04:14.602Z,98792.25
2022-11-30T01:06:41.086Z,98787.16
2022-11-30T01:09:07.571Z,98788.22
2022-11-30T01:11:34.008Z,98790.63
2022-11-30T01:14:00.865Z,98794.38
2022-11-30T01:16:29.614Z,98799.97
2022-11-30T01:18:56.128Z,98797.81
2022-11-30T01:21:24.638Z,98793.53
2022-11-30T01:23:51.297Z,98800.19
2022-11-30T01:26:17.826Z,98799.41
2022-11-30T01:28:44.498Z,98796.47
2022-11-30T01:31:12.854Z,98794.59
2022-11-30T01:33:39.672Z,98795.09
2022-11-30T01:36:07.093Z,98799.66
2022-11-30T01:38:34.869Z,98797.50
2022-11-30T01:41:01.992Z,98802.28
2022-11-30T01:43:47.960Z,98798.00
2022-11-30T01:46:21.507Z,98793.69
2022-11-30T01:48:49.349Z,98799.81
2022-11-30T01:51:15.798Z,98797.16
2022-11-30T01:53:42.251Z,98799.56
2022-11-30T01:56:08.710Z,98802.22
2022-11-30T01:58:36.564Z,98804.91
2022-11-30T02:01:03.961Z,98793.91
2022-11-30T02:03:41.449Z,98801.13
2022-11-30T02:06:08.282Z,98796.31
2022-11-30T02:08:34.967Z,98795.50
2022-11-30T02:11:04.310Z,98802.16
2022-11-30T02:13:52.685Z,98805.09
2022-11-30T02:16:27.335Z,98803.75
2022-11-30T02:18:59.282Z,98802.66
2022-11-30T02:21:40.894Z,98800.75
2022-11-30T02:29:14.314Z,98803.94
2022-11-30T02:31:55.879Z,98802.34
2022-11-30T02:34:22.633Z,98802.84
2022-11-30T02:36:49.105Z,98801.22
2022-11-30T02:39:16.952Z,98802.31
2022-11-30T02:41:43.694Z,98811.63
2022-11-30T02:44:10.516Z,98807.59
2022-11-30T02:47:28.306Z,98807.84
2022-11-30T02:50:15.597Z,98799.56
2022-11-30T02:52:42.050Z,98801.69
2022-11-30T02:55:09.971Z,98804.88
2022-11-30T02:57:36.458Z,98811.25
2022-11-30T03:00:08.605Z,98812.81
2022-11-30T03:02:35.215Z,98809.63
2022-11-30T03:05:01.740Z,98817.63
2022-11-30T03:07:28.276Z,98812.00
2022-11-30T03:09:54.778Z,98816.31
2022-11-30T03:12:21.281Z,98816.84
2022-11-30T03:14:48.062Z,98817.34
2022-11-30T03:17:14.672Z,98811.47
2022-11-30T03:19:41.134Z,98824.28
2022-11-30T03:22:07.589Z,98822.66
2022-11-30T03:24:34.056Z,98825.59
2022-11-30T03:27:00.542Z,98820.75
2022-11-30T03:29:27.110Z,98825.50
2022-11-30T03:31:53.573Z,98818.56
2022-11-30T03:34:20.046Z,98824.94
2022-11-30T03:36:46.491Z,98823.59
2022-11-30T03:39:13.198Z,98820.38
2022-11-30T03:41:39.808Z,98817.47
2022-11-30T03:44:06.263Z,98824.47
2022-11-30T03:46:34.057Z,98822.38
2022-11-30T03:49:00.723Z,98827.44
2022-11-30T03:51:27.267Z,98826.38
2022-11-30T03:53:53.718Z,98823.44
2022-11-30T03:56:20.798Z,98829.31
2022-11-30T03:58:47.264Z,98827.72
2022-11-30T04:01:15.638Z,98822.59
2022-11-30T04:03:42.301Z,98824.47
2022-11-30T04:06:09.609Z,98822.03
2022-11-30T04:08:36.570Z,98828.44
2022-11-30T04:11:03.651Z,98826.00
2022-11-30T04:13:30.278Z,98831.59
2022-11-30T04:15:56.838Z,98838.00
2022-11-30T04:18:24.231Z,98838.25
2022-11-30T04:20:52.215Z,98829.97
2022-11-30T04:23:19.096Z,98839.25
2022-11-30T04:25:45.845Z,98836.06
2022-11-30T04:28:12.283Z,98837.34
2022-11-30T04:30:38.976Z,98838.41
2022-11-30T04:33:05.451Z,98837.84
2022-11-30T04:35:32.571Z,98841.34
2022-11-30T04:37:59.316Z,98846.13
2022-11-30T04:40:25.757Z,98836.69
2022-11-30T04:42:52.579Z,98827.91
2022-11-30T04:45:19.032Z,98838.06
2022-11-30T04:47:45.472Z,98840.19
2022-11-30T04:50:11.922Z,98835.09
2022-11-30T04:52:38.389Z,98845.22
2022-11-30T04:55:05.237Z,98842.81
2022-11-30T04:57:32.414Z,98846.50
2022-11-30T04:59:58.872Z,98849.44
2022-11-30T05:02:25.331Z,98845.16
2022-11-30T05:04:52.108Z,98841.69
2022-11-30T05:07:18.731Z,98850.72
2022-11-30T05:09:45.246Z,98848.06
2022-11-30T05:12:11.700Z,98847.84
2022-11-30T05:14:38.278Z,98853.16
2022-11-30T05:17:04.727Z,98860.38
2022-11-30T05:19:31.168Z,98858.72
2022-11-30T05:21:57.637Z,98862.47
2022-11-30T05:24:24.316Z,98867.00
2022-11-30T05:26:50.760Z,98865.66
2022-11-30T05:29:17.201Z,98862.41
2022-11-30T05:31:43.735Z,98867.75
2022-11-30T05:34:10.702Z,98876.81
2022-11-30T05:36:37.151Z,98871.72
2022-11-30T05:39:03.683Z,98876.22
2022-11-30T05:41:30.139Z,98880.75
2022-11-30T05:43:56.745Z,98877.56
2022-11-30T05:46:23.249Z,98877.81
2022-11-30T05:48:49.794Z,98879.41
2022-11-30T05:51:17.462Z,98878.84
2022-11-30T05:53:44.905Z,98879.91
2022-11-30T05:56:13.438Z,98887.09
2022-11-30T05:58:40.036Z,98882.03
2022-11-30T06:01:06.591Z,98883.09
2022-11-30T06:03:33.870Z,98896.41
2022-11-30T06:06:00.377Z,98895.03
2022-11-30T06:08:26.882Z,98893.44
2022-11-30T06:10:53.612Z,98901.44
2022-11-30T06:13:24.681Z,98894.50
2022-11-30T06:15:53.944Z,98883.25
2022-11-30T06:18:20.394Z,98893.13
2022-11-30T06:20:46.890Z,98893.38
2022-11-30T06:23:13.338Z,98895.47
2022-11-30T06:25:39.790Z,98898.38
2022-11-30T06:28:09.312Z,98895.16
2022-11-30T06:30:35.788Z,98899.66
2022-11-30T06:33:02.235Z,98909.31
2022-11-30T06:35:28.764Z,98913.00
2022-11-30T06:37:55.213Z,98909.53
2022-11-30T06:40:21.706Z,98914.84
2022-11-30T06:42:48.515Z,98917.22
2022-11-30T06:45:15.008Z,98919.03
2022-11-30T06:47:41.588Z,98924.38
2022-11-30T06:50:08.483Z,98919.03
2022-11-30T06:52:35.080Z,98924.63
2022-11-30T06:55:01.587Z,98920.91
2022-11-30T06:57:28.418Z,98924.63
2022-11-30T06:59:55.250Z,98923.81
2022-11-30T07:02:21.706Z,98920.84
2022-11-30T07:04:48.383Z,98925.69
2022-11-30T07:07:15.180Z,98931.00
2022-11-30T07:09:41.646Z,98929.41
2022-11-30T07:12:08.254Z,98935.53
2022-11-30T07:14:34.749Z,98934.16
2022-11-30T07:17:04.552Z,98939.47
2022-11-30T07:19:31.647Z,98942.41
2022-11-30T07:21:58.100Z,98942.66
2022-11-30T07:24:43.057Z,98939.41
2022-11-30T07:27:09.960Z,98943.94
2022-11-30T07:29:36.444Z,98946.84
2022-11-30T07:32:02.929Z,98940.72
2022-11-30T07:34:29.446Z,98945.47
2022-11-30T07:36:55.910Z,98950.00
2022-11-30T07:39:23.499Z,98951.06
2022-11-30T07:41:49.990Z,98945.72
2022-11-30T07:44:16.472Z,98952.66
2022-11-30T07:46:42.956Z,98961.47
2022-11-30T07:49:09.763Z,98957.00
2022-11-30T07:51:36.573Z,98951.44
2022-11-30T07:54:03.063Z,98955.97
2022-11-30T07:56:29.618Z,98955.16
2022-11-30T07:58:57.688Z,98957.81
2022-11-30T08:01:26.533Z,98958.66
2022-11-30T08:03:53.222Z,98966.84
2022-11-30T08:06:21.141Z,98962.34
2022-11-30T08:08:48.699Z,98967.13
2022-11-30T08:11:16.820Z,98969.78
2022-11-30T08:13:43.364Z,98973.25
2022-11-30T08:16:12.351Z,98971.97
2022-11-30T08:18:39.328Z,98974.53
2022-11-30T08:21:06.570Z,98971.56
2022-11-30T08:23:34.771Z,98971.25
2022-11-30T08:26:06.554Z,98972.53
2022-11-30T08:28:35.998Z,98970.13
2022-11-30T08:31:04.030Z,98979.97
2022-11-30T08:33:31.240Z,98974.31
2022-11-30T08:36:10.417Z,98982.31
2022-11-30T08:38:36.900Z,98984.41
2022-11-30T08:41:03.866Z,98980.63
2022-11-30T08:43:30.470Z,98974.09
2022-11-30T08:45:57.349Z,98982.63
2022-11-30T08:48:24.224Z,98982.63
2022-11-30T08:50:50.938Z,98981.59
2022-11-30T08:53:17.418Z,98987.41
2022-11-30T08:55:43.902Z,98986.13
2022-11-30T08:58:10.362Z,98995.72
2022-11-30T09:00:36.799Z,98995.13
2022-11-30T09:03:03.315Z,99000.47
2022-11-30T09:05:29.798Z,99000.06
2022-11-30T09:07:56.287Z,99009.91
2022-11-30T09:10:22.794Z,99009.69
2022-11-30T09:12:49.266Z,99008.38
2022-11-30T09:15:15.742Z,99011.28
2022-11-30T09:17:42.218Z,99020.88
2022-11-30T09:20:09.239Z,99010.47
2022-11-30T09:22:35.728Z,99013.38
2022-11-30T09:25:02.204Z,99018.13
2022-11-30T09:27:31.875Z,99015.47
2022-11-30T09:29:58.334Z,99027.19
2022-11-30T09:32:24.837Z,99023.94
2022-11-30T09:34:51.513Z,99017.00
2022-11-30T09:37:18.167Z,99016.44
2022-11-30T09:39:44.606Z,99017.50
2022-11-30T09:42:40.474Z,99028.16
2022-11-30T09:45:12.842Z,99019.31
2022-11-30T09:47:51.780Z,99015.31
2022-11-30T09:50:22.891Z,99023.03
2022-11-30T09:52:54.728Z,99023.03
2022-11-30T09:55:26.878Z,99030.22
2022-11-30T09:57:55.158Z,99030.22
2022-11-30T10:00:22.994Z,99029.16
2022-11-30T10:02:50.417Z,99023.03
2022-11-30T10:05:19.581Z,99027.56
2022-11-30T10:08:05.000Z,99032.88
2022-11-30T10:10:42.086Z,99031.03
2022-11-30T10:13:23.750Z,99027.81
2022-11-30T10:16:27.809Z,99021.09
2022-11-30T10:19:16.496Z,99020.06
2022-11-30T10:22:27.149Z,99023.75
2022-11-30T10:25:24.782Z,99020.56
2022-11-30T10:27:55.122Z,99016.03
2022-11-30T10:30:25.516Z,99017.09
2022-11-30T10:32:54.052Z,99013.63
2022-11-30T10:35:39.565Z,99010.38
2022-11-30T10:38:20.154Z,99005.63
2022-11-30T10:40:55.850Z,99017.31
2022-11-30T10:43:34.025Z,99014.09
2022-11-30T10:46:00.801Z,99016.28
2022-11-30T10:48:29.910Z,99017.00
2022-11-30T10:50:57.094Z,99019.06
2022-11-30T10:53:23.556Z,99012.41
2022-11-30T10:56:04.616Z,99010.97
2022-11-30T10:58:45.290Z,99013.88
2022-11-30T11:01:29.730Z,99017.34
2022-11-30T11:04:09.616Z,99021.88
2022-11-30T11:06:36.362Z,99017.59
2022-11-30T11:09:38.436Z,99018.63
2022-11-30T11:12:05.865Z,99022.09
2022-11-30T11:14:37.695Z,99017.81
2022-11-30T11:17:26.408Z,99015.41
2022-11-30T11:19:53.059Z,99025.25
2022-11-30T11:22:26.653Z,99022.59
2022-11-30T11:25:19.911Z,99022.81
2022-11-30T11:28:10.517Z,99017.25
2022-11-30T11:30:37.310Z,99031.38
2022-11-30T11:33:15.680Z,99028.72
2022-11-30T11:35:46.657Z,99036.09
2022-11-30T11:38:28.832Z,99040.41
2022-11-30T11:40:58.014Z,99043.28
2022-11-30T11:43:25.840Z,99035.78
2022-11-30T11:45:54.227Z,99039.47
2022-11-30T11:48:46.358Z,99037.06
2022-11-30T11:51:13.972Z,99038.13
2022-11-30T11:53:51.373Z,99029.53
2022-11-30T11:56:31.914Z,99030.38
2022-11-30T11:59:11.089Z,99028.03
2022-11-30T12:01:43.554Z,99025.38
2022-11-30T12:04:54.530Z,99022.72
2022-11-30T12:07:36.683Z,99033.13
2022-11-30T12:10:43.233Z,99031.28
2022-11-30T12:12:59.010Z,99046.44
2022-11-30T12:15:35.839Z,99036.25
2022-11-30T12:18:23.557Z,99040.78
2022-11-30T12:21:00.593Z,99038.91
2022-11-30T12:23:49.315Z,99045.63
2022-11-30T12:26:40.705Z,99039.25
2022-11-30T12:29:23.715Z,99039.47
2022-11-30T12:31:56.114Z,99038.88
2022-11-30T12:34:42.721Z,99038.59
2022-11-30T12:37:48.634Z,99035.00
2022-11-30T12:40:21.406Z,99043.06
2022-11-30T12:43:04.590Z,99044.22
2022-11-30T12:45:42.146Z,99045.81
2022-11-30T12:48:27.328Z,99042.91
2022-11-30T12:50:59.814Z,99040.81
2022-11-30T12:53:34.176Z,99047.97
2022-11-30T12:56:22.393Z,99048.81
2022-11-30T12:59:43.367Z,99046.44
2022-11-30T13:02:31.471Z,99046.94
2022-11-30T13:05:21.261Z,99048.31
2022-11-30T13:08:21.865Z,99041.47
2022-11-30T13:10:50.359Z,99051.16
2022-11-30T13:13:19.111Z,99049.13
2022-11-30T13:15:46.765Z,99048.41
2022-11-30T13:18:18.360Z,99048.88
2022-11-30T13:21:07.131Z,99053.88
2022-11-30T13:23:46.446Z,99050.41
2022-11-30T13:26:31.092Z,99051.41
2022-11-30T13:29:21.760Z,99053.75
2022-11-30T13:31:52.697Z,99056.41
2022-11-30T13:34:29.021Z,99059.88
2022-11-30T13:37:17.427Z,99055.84
2022-11-30T13:39:50.713Z,99064.06
2022-11-30T13:42:39.123Z,99053.41
2022-11-30T13:45:14.336Z,99057.94
2022-11-30T13:47:43.104Z,99056.88
2022-11-30T13:50:18.556Z,99056.66
2022-11-30T13:53:00.502Z,99056.09
2022-11-30T13:55:36.164Z,99059.25
2022-11-30T13:58:05.742Z,99063.91
2022-11-30T14:00:32.090Z,99057.22
2022-11-30T14:03:17.376Z,99063.16
2022-11-30T14:05:46.181Z,99062.38
2022-11-30T14:08:21.748Z,99060.88
2022-11-30T14:10:55.076Z,99057.47
2022-11-30T14:13:22.754Z,99055.19
2022-11-30T14:15:54.206Z,99060.66
2022-11-30T14:18:38.896Z,99067.19
2022-11-30T14:21:26.715Z,99072.19
2022-11-30T14:23:58.053Z,99075.81
2022-11-30T14:26:35.561Z,99077.72
2022-11-30T14:29:08.105Z,99075.28
2022-11-30T14:31:41.759Z,99072.13
2022-11-30T14:34:28.935Z,99079.41
2022-11-30T14:36:58.164Z,99080.94
2022-11-30T14:39:26.605Z,99079.25
2022-11-30T14:41:53.405Z,99078.47
2022-11-30T14:44:19.860Z,99073.59
2022-11-30T14:46:46.341Z,99087.72
2022-11-30T14:49:20.881Z,99085.78
2022-11-30T14:51:49.968Z,99093.72
2022-11-30T14:54:22.271Z,99092.34
2022-11-30T14:56:49.655Z,99090.97
2022-11-30T14:59:37.314Z,99087.94
2022-11-30T15:02:05.341Z,99094.09
2022-11-30T15:04:31.897Z,99102.34
2022-11-30T15:06:58.599Z,99099.13
2022-11-30T15:09:27.640Z,99111.84
2022-11-30T15:11:54.158Z,99104.91
2022-11-30T15:14:20.684Z,99103.31
2022-11-30T15:16:48.561Z,99111.53
2022-11-30T15:19:25.951Z,99115.72
2022-11-30T15:21:52.820Z,99103.16
2022-11-30T15:24:19.469Z,99108.69
2022-11-30T15:27:10.992Z,99106.53
2022-11-30T15:29:42.781Z,99104.69
2022-11-30T15:32:15.886Z,99106.28
2022-11-30T15:34:54.884Z,99113.22
2022-11-30T15:37:33.754Z,99111.88
2022-11-30T15:40:01.184Z,99111.88
2022-11-30T15:42:40.095Z,99114.28
2022-11-30T15:45:22.754Z,99115.63
2022-11-30T15:47:49.543Z,99118.53
2022-11-30T15:50:31.143Z,99109.75
2022-11-30T15:53:02.521Z,99116.13
2022-11-30T15:55:41.050Z,99110.81
2022-11-30T15:58:45.563Z,99112.41
2022-11-30T16:01:18.768Z,99117.19
2022-11-30T16:04:08.545Z,99107.00
2022-11-30T16:06:35.854Z,99109.66
2022-11-30T16:09:05.757Z,99115.25
2022-11-30T16:11:33.378Z,99115.00
2022-11-30T16:13:59.825Z,99112.81
2022-11-30T16:16:30.326Z,99113.06
2022-11-30T16:18:56.853Z,99114.91
2022-11-30T16:21:23.565Z,99116.78
2022-11-30T16:23:56.589Z,99119.19
2022-11-30T16:26:43.502Z,99121.59
2022-11-30T16:29:09.544Z,99119.75
2022-11-30T16:31:37.251Z,99113.59
2022-11-30T16:34:03.754Z,99127.41
2022-11-30T16:36:30.564Z,99132.66
2022-11-30T16:38:57.728Z,99127.09
2022-11-30T16:41:25.328Z,99134.81
2022-11-30T16:43:53.264Z,99138.53
2022-11-30T16:46:29.103Z,99134.03
2022-11-30T16:48:55.678Z,99133.97
2022-11-30T16:51:25.733Z,99137.69
2022-11-30T16:53:52.332Z,99139.19
2022-11-30T16:56:18.890Z,99146.91
2022-11-30T16:58:45.401Z,99140.13
2022-11-30T17:01:22.934Z,99138.41
2022-11-30T17:03:50.752Z,99151.97
2022-11-30T17:06:19.722Z,99151.88
2022-11-30T17:08:46.628Z,99157.13
2022-11-30T17:11:18.369Z,99155.06
2022-11-30T17:13:44.963Z,99151.16
2022-11-30T17:16:11.605Z,99161.31
2022-11-30T17:18:38.437Z,99164.88
2022-11-30T17:21:04.977Z,99171.06
2022-11-30T17:23:31.424Z,99171.41
2022-11-30T17:25:57.884Z,99168.25
2022-11-30T17:28:24.384Z,99177.13
2022-11-30T17:30:50.926Z,99171.63
2022-11-30T17:33:17.406Z,99178.88
2022-11-30T17:35:43.872Z,99172.53
2022-11-30T17:38:10.479Z,99173.97
2022-11-30T17:40:41.765Z,99183.66
2022-11-30T17:43:08.637Z,99178.09
2022-11-30T17:45:39.097Z,99182.50
2022-11-30T17:48:05.708Z,99181.72
2022-11-30T17:50:32.182Z,99180.66
2022-11-30T17:52:58.671Z,99181.47
2022-11-30T17:55:25.158Z,99180.66
2022-11-30T17:57:51.660Z,99178.00
2022-11-30T18:00:18.715Z,99184.94
2022-11-30T18:02:45.193Z,99181.47
2022-11-30T18:05:12.109Z,99191.63
2022-11-30T18:07:39.240Z,99190.13
2022-11-30T18:10:06.418Z,99199.53
2022-11-30T18:12:32.975Z,99199.19
2022-11-30T18:14:59.698Z,99188.88
2022-11-30T18:17:26.241Z,99187.91
2022-11-30T18:19:53.179Z,99189.22
2022-11-30T18:22:19.809Z,99193.91
2022-11-30T18:24:46.530Z,99191.78
2022-11-30T18:27:13.443Z,99200.63
2022-11-30T18:29:40.093Z,99200.13
2022-11-30T18:32:08.050Z,99202.03
2022-11-30T18:34:34.637Z,99206.06
2022-11-30T18:37:01.094Z,99208.69
2022-11-30T18:39:27.596Z,99200.34
2022-11-30T18:41:54.099Z,99206.78
2022-11-30T18:44:21.429Z,99209.19
2022-11-30T18:46:47.911Z,99208.69
2022-11-30T18:49:14.616Z,99210.56
2022-11-30T18:51:41.076Z,99207.06
2022-11-30T18:54:08.043Z,99204.94
2022-11-30T18:56:35.700Z,99211.13
2022-11-30T18:59:04.838Z,99223.13
2022-11-30T19:01:31.463Z,99224.44
2022-11-30T19:04:02.717Z,99219.66
2022-11-30T19:06:29.841Z,99216.22
2022-11-30T19:08:56.934Z,99225.06
2022-11-30T19:11:23.488Z,99214.03
2022-11-30T19:13:54.447Z,99233.84
2022-11-30T19:16:21.252Z,99230.09
2022-11-30T19:18:48.668Z,99233.03
2022-11-30T19:21:16.909Z,99232.84
2022-11-30T19:23:43.415Z,99228.16
2022-11-30T19:26:10.282Z,99235.91
2022-11-30T19:28:37.730Z,99234.28
2022-11-30T19:31:08.448Z,99241.78
2022-11-30T19:33:36.416Z,99237.25
2022-11-30T19:36:03.853Z,99247.84
2022-11-30T19:38:30.343Z,99242.81
2022-11-30T19:40:56.889Z,99245.88
2022-11-30T19:43:23.342Z,99245.09
2022-11-30T19:45:49.873Z,99245.69
2022-11-30T19:48:16.346Z,99246.47
2022-11-30T19:50:43.052Z,99248.81
2022-11-30T19:53:09.501Z,99253.66
2022-11-30T19:55:38.259Z,99255.28
2022-11-30T19:58:04.718Z,99253.66
2022-11-30T20:00:31.166Z,99252.88
2022-11-30T20:02:57.674Z,99253.09
2022-11-30T20:05:24.156Z,99248.56
2022-11-30T20:07:50.698Z,99254.16
2022-11-30T20:10:17.253Z,99261.13
2022-11-30T20:12:43.744Z,99246.09
2022-11-30T20:15:10.438Z,99255.25
2022-11-30T20:17:36.928Z,99258.19
2022-11-30T20:20:03.945Z,99251.72
2022-11-30T20:22:30.538Z,99254.41
2022-11-30T20:24:57.002Z,99260.78
2022-11-30T20:27:24.807Z,99251.34
2022-11-30T20:29:51.628Z,99257.22
2022-11-30T20:32:18.561Z,99253.53
2022-11-30T20:34:45.252Z,99257.31
2022-11-30T20:37:12.168Z,99257.06
2022-11-30T20:39:42.620Z,99259.19
2022-11-30T20:42:11.931Z,99266.91
2022-11-30T20:44:38.367Z,99260.19
2022-11-30T20:47:04.863Z,99262.88
2022-11-30T20:49:31.310Z,99261.28
2022-11-30T20:51:57.811Z,99259.63
2022-11-30T20:54:24.738Z,99262.03
2022-11-30T20:56:51.620Z,99260.44
2022-11-30T20:59:22.043Z,99268.19
2022-11-30T21:01:48.637Z,99257.44
2022-11-30T21:04:15.161Z,99260.03
2022-11-30T21:06:45.250Z,99261.25
2022-11-30T21:09:15.710Z,99262.81
2022-11-30T21:11:42.283Z,99265.97
2022-11-30T21:14:09.058Z,99270.28
2022-11-30T21:16:35.622Z,99274.56
2022-11-30T21:19:02.216Z,99265.00
2022-11-30T21:21:30.869Z,99271.50
2022-11-30T21:23:59.834Z,99265.63
2022-11-30T21:26:28.736Z,99270.00
2022-11-30T21:28:58.314Z,99270.06
2022-11-30T21:31:24.912Z,99266.91
2022-11-30T21:33:53.478Z,99260.56
2022-11-30T21:36:20.716Z,99267.81
2022-11-30T21:38:47.200Z,99269.47
2022-11-30T21:41:14.051Z,99266.84
2022-11-30T21:43:40.569Z,99265.31
2022-11-30T21:46:10.912Z,99267.53
2022-11-30T21:48:37.961Z,99272.50
2022-11-30T21:51:12.540Z,99262.72
2022-11-30T21:53:43.661Z,99265.38
2022-11-30T21:56:14.863Z,99265.22
2022-11-30T21:58:45.330Z,99265.25
2022-11-30T22:01:16.579Z,99262.06
2022-11-30T22:03:43.085Z,99263.69
2022-11-30T22:06:13.817Z,99266.09
2022-11-30T22:08:41.148Z,99268.50
2022-11-30T22:11:09.473Z,99270.13
2022-11-30T22:13:36.260Z,99273.03
2022-11-30T22:16:04.758Z,99269.28
2022-11-30T22:18:31.305Z,99273.78
2022-11-30T22:21:04.721Z,99274.38
2022-11-30T22:23:32.494Z,99276.00
2022-11-30T22:26:31.092Z,99278.94
2022-11-30T22:29:02.146Z,99266.34
2022-11-30T22:31:33.157Z,99277.59
2022-11-30T22:33:59.745Z,99274.94
2022-11-30T22:36:30.020Z,99267.47
2022-11-30T22:39:07.289Z,99271.38
2022-11-30T22:41:33.768Z,99273.50
2022-11-30T22:44:00.287Z,99261.84
2022-11-30T22:46:31.119Z,99266.63
2022-11-30T22:49:01.633Z,99268.78
2022-11-30T22:51:28.942Z,99271.03
2022-11-30T22:53:55.465Z,99266.78
2022-11-30T22:56:26.464Z,99270.03
2022-11-30T22:58:56.461Z,99261.75
2022-11-30T23:01:24.600Z,99265.22
2022-11-30T23:03:56.286Z,99266.84
2022-11-30T23:06:23.490Z,99256.66
2022-11-30T23:08:50.284Z,99261.13
2022-11-30T23:11:19.393Z,99267.44
2022-11-30T23:13:45.868Z,99269.78
2022-11-30T23:16:12.888Z,99264.94
2022-11-30T23:18:45.814Z,99258.94
2022-11-30T23:21:22.973Z,99252.97
2022-11-30T23:23:49.465Z,99257.78
2022-11-30T23:26:23.291Z,99258.03
2022-11-30T23:28:51.600Z,99257.97
2022-11-30T23:31:33.993Z,99262.22
2022-11-30T23:34:05.752Z,99254.97
2022-11-30T23:36:33.411Z,99256.53
2022-11-30T23:39:01.782Z,99256.47
2022-11-30T23:41:28.277Z,99255.66
2022-11-30T23:43:54.918Z,99257.22
2022-11-30T23:46:21.460Z,99256.66
2022-11-30T23:48:48.047Z,99268.88
2022-11-30T23:51:14.525Z,99269.16
2022-11-30T23:53:40.977Z,99265.94
2022-11-30T23:56:08.705Z,99264.56
2022-11-30T23:58:35.429Z,99261.03
